• Join FlightAware (Why Join?)
  • Login
  • US Flag 
05:30PM EDT


 

Airport Tracker/Info


-or-


 

Live Flight TrackerFlight Track Log ✈ FDX3613 ✈ 27-Apr-2013 ✈ KSAN - KIND

Flight Track Log - Related Links

Times and Time Zones

All times are in EDT time to prevent confusion due to time zone crossing. See the FDX3613 flight status page for this flight to view local times or setup timezone preferences in your user account.

Time Position Orientation Groundspeed Altitude Reporting Facility
EDT Latitude Longitude Course Direction KTS MPH feet Rate Location/Type
09:40AM 32.7450 -117.2353 83° East 168 193 1,400  Level Los Angeles Center
09:42AM 32.7567 -117.3100 281° West 227 261 2,600 1,980 Climbing Los Angeles Center
09:43AM 32.6828 -117.3203 187° South 271 312 5,900 2,940 Climbing Los Angeles Center
09:44AM 32.6464 -117.2411 119° Southeast 276 318 8,700 2,220 Climbing Los Angeles Center
09:45AM 32.6367 -117.1500 97° East 279 321 10,400 1,380 Climbing Los Angeles Center
09:46AM 32.6201 -116.7324 83° East  Level FlightAware Approximate
09:46AM 32.6200 -117.0394 100° East 338 389 11,500  Level Los Angeles Center
09:47AM 32.6139 -116.9222 94° East 358 412 13,300 2,040 Climbing Los Angeles Center
09:48AM 32.6306 -116.7733 82° East 379 436 15,700 1,980 Climbing Los Angeles Center
09:49AM 32.6425 -116.6433 84° East 394 453 17,400 1,440 Climbing Los Angeles Center
09:50AM 32.6547 -116.5100 84° East 406 467 18,700 1,500 Climbing Los Angeles Center
09:51AM 32.6689 -116.3739 83° East 421 484 20,500 1,500 Climbing Los Angeles Center
09:52AM 32.6828 -116.2361 83° East 426 490 21,800 1,260 Climbing Los Angeles Center
09:53AM 32.6953 -116.0950 84° East 433 498 23,100 1,200 Climbing Los Angeles Center
09:54AM 32.7086 -115.9497 84° East 445 512 24,300 1,080 Climbing Los Angeles Center
09:55AM 32.7222 -115.8019 84° East 451 519 25,300 1,020 Climbing Los Angeles Center
09:56AM 32.7392 -115.6183 84° East 468 539 26,400 960 Climbing Los Angeles Center
09:57AM 32.7511 -115.4628 85° East 476 548 27,300 780 Climbing Los Angeles Center
09:58AM 32.7533 -115.3036 89° East 483 556 28,100 720 Climbing Los Angeles Center
09:59AM 32.7561 -115.1406 89° East 492 566 28,800 780 Climbing Los Angeles Center
10:00AM 32.7592 -114.9772 89° East 496 571 29,800 960 Climbing Los Angeles Center
10:01AM 32.7625 -114.8136 89° East 496 571 30,800 780 Climbing Los Angeles Center
10:02AM 32.7650 -114.6503 89° East 496 571 31,400 540 Climbing Los Angeles Center
10:03AM 32.7672 -114.4842 89° East 501 577 32,000 600 Climbing Los Angeles Center
10:04AM 32.7703 -114.3167 89° East 507 583 32,700 480 Climbing Los Angeles Center
10:05AM 32.7725 -114.1497 89° East 508 585 33,000 180 Climbing Los Angeles Center
10:05AM 32.7767 -114.0928 85° East 507 583 33,000  Level Albuquerque Center
10:06AM 32.7797 -113.9258 89° East 506 582 33,000  Level Albuquerque Center
10:07AM 32.8069 -113.7608 79° East 503 579 33,000  Level Albuquerque Center
10:08AM 32.8311 -113.5964 80° East 504 580 33,000  Level Albuquerque Center
10:09AM 32.8847 -113.4453 67° East 491 565 33,000  Level Albuquerque Center
10:10AM 32.9447 -113.2933 65° Northeast 501 577 33,000  Level Albuquerque Center
10:11AM 33.0039 -113.1431 65° Northeast 499 574 33,000  Level Albuquerque Center
10:12AM 33.0642 -112.9925 64° Northeast 500 575 33,000 -60 Level Albuquerque Center
10:13AM 33.1233 -112.8406 65° Northeast 501 577 32,900  Descending Albuquerque Center
10:14AM 33.1817 -112.6897 65° Northeast 500 575 33,000  Climbing Albuquerque Center
10:15AM 33.2381 -112.5356 66° East 502 578 33,000  Level Albuquerque Center
10:16AM 33.3039 -112.3550 66° East 498 573 33,000  Level Albuquerque Center
10:18AM 33.3583 -112.2033 67° East 499 574 33,000  Level Albuquerque Center
10:19AM 33.4119 -112.0564 66° East 492 566 33,000  Level Albuquerque Center
10:20AM 33.4653 -111.9125 66° East 483 556 33,000  Level Albuquerque Center
10:21AM 33.5172 -111.7661 67° East 482 555 33,000  Level Albuquerque Center
10:22AM 33.5703 -111.6175 67° East 488 562 33,000  Level Albuquerque Center
10:23AM 33.6242 -111.4694 66° East 490 564 33,000  Level Albuquerque Center
10:24AM 33.6875 -111.2892 67° East 493 567 33,000  Level Albuquerque Center
10:25AM 33.7403 -111.1394 67° East 492 566 33,000  Level Albuquerque Center
10:26AM 33.7942 -110.9878 67° East 496 571 33,000  Level Albuquerque Center
10:27AM 33.8456 -110.8375 68° East 492 566 33,000  Level Albuquerque Center
10:28AM 33.8975 -110.6867 67° East 491 565 33,000 120 Level Albuquerque Center
10:29AM 33.9489 -110.5353 68° East 490 564 33,300 720 Climbing Albuquerque Center
10:30AM 34.0067 -110.3661 68° East 491 565 34,500 780 Climbing Albuquerque Center
10:31AM 34.0592 -110.2178 67° East 487 560 35,000 240 Climbing Albuquerque Center
10:32AM 34.1142 -110.0539 68° East 493 567 35,000  Level Albuquerque Center
10:33AM 34.1717 -109.8833 68° East 492 566 35,000  Level Albuquerque Center
10:34AM 34.2217 -109.7386 67° East 491 565 35,000  Level Albuquerque Center
10:35AM 34.2708 -109.5925 68° East 490 564 35,000  Level Albuquerque Center
10:36AM 34.3272 -109.4239 68° East 487 560 35,000  Level Albuquerque Center
10:37AM 34.3758 -109.2778 68° East 488 562 35,000  Level Albuquerque Center
10:38AM 34.4322 -109.1069 68° East 489 563 35,000  Level Albuquerque Center
10:39AM 34.4797 -108.9617 68° East 488 562 35,000  Level Albuquerque Center
10:40AM 34.5272 -108.8167 68° East 486 559 35,000  Level Albuquerque Center
10:41AM 34.5819 -108.6492 68° East 482 555 35,000  Level Albuquerque Center
10:42AM 34.6283 -108.5044 69° East 482 555 35,000  Level Albuquerque Center
10:43AM 34.6814 -108.3461 68° East 482 555 35,000  Level Albuquerque Center
10:44AM 34.7286 -108.1939 69° East 483 556 35,000  Level Albuquerque Center
10:45AM 34.7781 -108.0411 68° East 484 557 35,000  Level Albuquerque Center
10:46AM 34.8272 -107.8886 69° East 485 558 35,100  Climbing Albuquerque Center
10:47AM 34.8761 -107.7347 69° East 486 559 35,000 -60 Descending Albuquerque Center
10:48AM 34.9333 -107.5500 69° East 486 559 35,000  Level Albuquerque Center
10:49AM 34.9806 -107.3972 69° East 484 557 35,000  Level Albuquerque Center
10:50AM 35.0283 -107.2431 69° East 484 557 35,000  Level Albuquerque Center
10:51AM 35.0767 -107.0911 69° East 487 560 35,000  Level Albuquerque Center
10:52AM 35.1275 -106.9206 70° East 480 552 35,000  Level Albuquerque Center
10:53AM 35.1728 -106.7764 69° East 476 548 35,000  Level Albuquerque Center
10:54AM 35.2267 -106.6050 69° East 480 552 35,000  Level Albuquerque Center
10:55AM 35.2514 -106.4572 78° East 490 564 35,000  Level Albuquerque Center
10:56AM 35.2761 -106.2953 79° East 486 559 35,000  Level Albuquerque Center
10:58AM 35.3022 -106.1047 80° East 482 555 35,000  Level Albuquerque Center
10:59AM 35.3258 -105.9406 80° East 485 558 35,000  Level Albuquerque Center
11:00AM 35.3519 -105.7758 79° East 489 563 35,000  Level Albuquerque Center
11:01AM 35.3772 -105.6111 79° East 488 562 35,000  Level Albuquerque Center
11:02AM 35.3994 -105.4469 81° East 484 557 35,000  Level Albuquerque Center
11:03AM 35.4242 -105.2828 79° East 486 559 35,000  Level Albuquerque Center
11:04AM 35.4511 -105.1178 79° East 487 560 35,000  Level Albuquerque Center
11:05AM 35.4769 -104.9536 79° East 487 560 35,000  Level Albuquerque Center
11:06AM 35.5044 -104.7883 78° East 487 560 35,000  Level Albuquerque Center
11:07AM 35.5322 -104.6236 78° East 487 560 35,000  Level Albuquerque Center
11:08AM 35.5883 -104.4400 69° East 485 558 35,000  Level Albuquerque Center
11:09AM 35.6325 -104.2803 71° East 485 558 35,000  Level Albuquerque Center
11:10AM 35.6789 -104.1214 70° East 485 558 35,000  Level Albuquerque Center
11:11AM 35.7239 -103.9619 71° East 487 560 35,000  Level Albuquerque Center
11:12AM 35.7694 -103.8014 71° East 488 562 35,000 240 Level Albuquerque Center
11:13AM 35.8142 -103.6417 71° East 488 562 35,600 540 Climbing Albuquerque Center
11:14AM 35.8581 -103.4828 71° East 486 559 36,200 540 Climbing Albuquerque Center
11:15AM 35.9028 -103.3256 71° East 484 557 36,800 360 Climbing Albuquerque Center
11:16AM 35.9461 -103.1678 71° East 481 554 37,000 60 Climbing Albuquerque Center
11:17AM 35.9906 -103.0067 71° East 488 562 37,000  Level Albuquerque Center
11:18AM 36.0419 -102.8197 71° East 491 565 37,000  Level Albuquerque Center
11:19AM 36.0847 -102.6600 72° East 490 564 37,000  Level Albuquerque Center
11:20AM 36.1286 -102.5008 71° East 489 563 37,000  Level Albuquerque Center
11:21AM 36.1711 -102.3400 72° East 490 564 37,000  Level Albuquerque Center
11:22AM 36.2142 -102.1803 71° East 488 562 37,000  Level Albuquerque Center
11:23AM 36.2572 -102.0194 72° East 491 565 37,000  Level Albuquerque Center
11:24AM 36.2989 -101.8589 72° East 491 565 37,000  Level Albuquerque Center
11:25AM 36.3406 -101.6986 72° East 488 562 37,000  Level Albuquerque Center
11:26AM 36.3867 -101.5258 72° East 487 560 37,000  Level Albuquerque Center
11:27AM 36.4325 -101.3442 73° East 491 565 37,000  Level Albuquerque Center
11:28AM 36.4717 -101.1889 73° East 493 567 37,000  Level Albuquerque Center
11:29AM 36.5042 -101.0594 73° East 492 566 37,000  Level Kansas City Center
11:30AM 36.5433 -100.9050 72° East 491 565 37,000  Level Kansas City Center
11:31AM 36.5892 -100.7239 72° East 493 567 37,000  Level Kansas City Center
11:32AM 36.6283 -100.5681 73° East 494 568 37,000  Level Kansas City Center
11:33AM 36.6706 -100.3986 73° East 494 568 37,000  Level Kansas City Center
11:34AM 36.7111 -100.2344 73° East 493 567 37,000  Level Kansas City Center
11:35AM 36.7506 -100.0694 73° East 494 568 37,000  Level Kansas City Center
11:36AM 36.7906 -99.9056 73° East 492 566 37,000  Level Kansas City Center
11:37AM 36.8292 -99.7403 74° East 493 567 37,000  Level Kansas City Center
11:38AM 36.8683 -99.5761 73° East 491 565 37,000  Level Kansas City Center
11:39AM 36.9092 -99.4069 73° East 499 574 37,000  Level Kansas City Center
11:40AM 36.9481 -99.2383 74° East 502 578 37,000  Level Kansas City Center
11:41AM 36.9861 -99.0725 74° East 496 571 37,000  Level Kansas City Center
11:42AM 37.0328 -98.8711 74° East 498 573 37,000  Level Kansas City Center
11:43AM 37.0681 -98.7186 74° East 498 573 37,000  Level Kansas City Center
11:45AM 37.1067 -98.5536 74° East 495 570 37,000  Level Kansas City Center
11:46AM 37.1447 -98.3892 74° East 495 570 37,000  Level Kansas City Center
11:47AM 37.1819 -98.2236 74° East 495 570 37,000  Level Kansas City Center
11:48AM 37.2192 -98.0586 74° East 495 570 37,000  Level Kansas City Center
11:49AM 37.2636 -97.8608 74° East 495 570 37,000  Level Kansas City Center
11:50AM 37.2997 -97.6950 75° East 495 570 37,000  Level Kansas City Center
11:51AM 37.3511 -97.5378 68° East 493 567 37,000  Level Kansas City Center
11:52AM 37.4092 -97.3797 65° Northeast 502 578 37,000  Level Kansas City Center
11:53AM 37.4644 -97.2225 66° East 496 571 37,000  Level Kansas City Center
11:54AM 37.4964 -97.0556 76° East 495 570 37,000  Level Kansas City Center
11:55AM 37.5281 -96.8878 77° East 495 570 37,000  Level Kansas City Center
11:56AM 37.5658 -96.6853 77° East 496 571 37,000  Level Kansas City Center
11:57AM 37.6000 -96.5169 76° East 497 572 37,000  Level Kansas City Center
11:58AM 37.6322 -96.3544 76° East 495 570 37,000  Level Kansas City Center
11:59AM 37.6669 -96.1800 76° East 497 572 37,000  Level Kansas City Center
12:00PM 37.6997 -96.0153 76° East 495 570 37,000  Level Kansas City Center
12:01PM 37.7328 -95.8461 76° East 495 570 37,000  Level Kansas City Center
12:02PM 37.7736 -95.6347 76° East 508 585 37,000  Level Kansas City Center
12:03PM 37.8075 -95.4606 76° East 509 586 37,000  Level Kansas City Center
12:04PM 37.8406 -95.2856 76° East 510 587 37,100  Climbing Kansas City Center
12:05PM 37.8731 -95.1128 77° East 506 582 37,000 -60 Descending Kansas City Center
12:06PM 37.9056 -94.9469 76° East 505 581 37,000  Level Kansas City Center
12:07PM 37.9408 -94.7572 77° East 501 577 37,000  Level Kansas City Center
12:08PM 37.9714 -94.5919 77° East 503 579 37,000  Level Kansas City Center
12:09PM 38.0061 -94.3994 77° East 504 580 37,000  Level Kansas City Center
12:10PM 38.0369 -94.2319 77° East 507 583 37,000  Level Kansas City Center
12:11PM 38.0717 -94.0394 77° East 508 585 37,000  Level Kansas City Center
12:12PM 38.1033 -93.8611 77° East 513 590 37,000  Level Kansas City Center
12:13PM 38.1339 -93.6831 78° East 514 592 37,000  Level Kansas City Center
12:14PM 38.1650 -93.5039 77° East 516 594 37,000  Level Kansas City Center
12:15PM 38.1967 -93.3239 77° East 518 596 37,000  Level Kansas City Center
12:16PM 38.2275 -93.1428 78° East 521 600 37,000  Level Kansas City Center
12:17PM 38.2594 -92.9628 77° East 519 597 37,000 -300 Level Kansas City Center
12:18PM 38.2881 -92.7858 78° East 511 588 36,400 -780 Descending Kansas City Center
12:19PM 38.3186 -92.6042 78° East 514 592 35,500 -720 Descending Kansas City Center
12:20PM 38.3478 -92.4236 78° East 514 592 35,000 -300 Descending Kansas City Center
12:21PM 38.3769 -92.2372 79° East 529 609 35,000  Level Kansas City Center
12:22PM 38.4058 -92.0567 78° East 523 602 35,000  Level Kansas City Center
12:23PM 38.4350 -91.8761 78° East 519 597 35,000  Level Kansas City Center
12:24PM 38.4625 -91.6953 79° East 517 595 35,000  Level Kansas City Center
12:26PM 38.4964 -91.4786 79° East 516 594 35,000  Level Kansas City Center
12:27PM 38.5231 -91.3106 78° East 516 594 35,000  Level Kansas City Center
12:28PM 38.5494 -91.1308 79° East 518 596 35,000  Level Kansas City Center
12:29PM 38.5769 -90.9525 79° East 516 594 35,000 -60 Level Kansas City Center
12:30PM 38.6028 -90.7769 79° East 508 585 34,900  Descending Kansas City Center
12:31PM 38.6314 -90.5819 79° East 508 585 35,000  Climbing Kansas City Center
12:32PM 38.6575 -90.4047 79° East 507 583 35,000  Level Kansas City Center
12:33PM 38.6850 -90.2242 79° East 510 587 35,000  Level Kansas City Center
12:34PM 38.7094 -90.0428 80° East 513 590 35,000  Level Kansas City Center
12:35PM 38.7356 -89.8592 80° East 525 604 35,000  Level Kansas City Center
12:36PM 38.7661 -89.6447 80° East 517 595 35,000  Level Kansas City Center
12:37PM 38.7906 -89.4639 80° East 514 592 35,000 -480 Level Kansas City Center
12:38PM 38.8153 -89.2831 80° East 516 594 34,100 -1,620 Descending Kansas City Center
12:39PM 38.8411 -89.0903 80° East 509 586 31,800 -2,100 Descending Kansas City Center
12:40PM 38.8625 -88.9319 80° East 495 570 29,900 -2,040 Descending Kansas City Center
12:41PM 38.8864 -88.7622 80° East 489 563 27,700 -2,160 Descending Kansas City Center
12:42PM 38.9086 -88.5889 81° East 478 550 25,500 -1,860 Descending Kansas City Center
12:43PM 38.9306 -88.4258 80° East 466 536 24,000 -1,020 Descending Kansas City Center
12:43PM 38.9347 -88.3669 85° East 453 521 24,000  Level Indianapolis Center
12:44PM 38.9583 -88.1778 81° East 445 512 24,000  Level Indianapolis Center
12:45PM 38.9781 -88.0178 81° East 450 518 24,000 -1,260 Level Indianapolis Center
12:46PM 38.9983 -87.8569 81° East 451 519 21,500 -2,220 Descending Indianapolis Center
12:48PM 39.0175 -87.6972 81° East 451 519 19,500 -1,860 Descending Indianapolis Center
12:49PM 39.0353 -87.5494 81° East 422 486 17,800 -1,680 Descending Indianapolis Center
12:50PM 39.0517 -87.4106 81° East 395 455 16,100 -1,740 Descending Indianapolis Center
12:51PM 39.0681 -87.2786 81° East 377 434 14,300 -1,500 Descending Indianapolis Center
12:52PM 39.0836 -87.1522 81° East 362 417 13,100 -1,080 Descending Indianapolis Center
12:53PM 39.0969 -87.0258 82° East 357 411 12,100 -1,020 Descending Indianapolis Center
12:54PM 39.1111 -86.9108 81° East 335 386 11,100 -540 Descending Indianapolis Center
12:55PM 39.1864 -86.8428 35° Northeast 304 350 11,000 -60 Descending Indianapolis Center
12:56PM 39.2567 -86.7847 33° Northeast 299 344 11,000 -840 Level Indianapolis Center
12:57PM 39.3250 -86.7286 32° Northeast 292 336 9,400 -1,560 Descending Indianapolis Center
12:58PM 39.3933 -86.6728 32° Northeast 289 333 7,900 -1,380 Descending Indianapolis Center
12:59PM 39.4561 -86.6125 37° Northeast 282 325 6,600 -1,200 Descending Indianapolis Center
01:00PM 39.5108 -86.5450 44° Northeast 274 315 5,500 -1,020 Descending Indianapolis Center
01:01PM 39.5589 -86.4842 44° Northeast 251 289 4,600 -960 Descending Indianapolis Center
01:02PM 39.6011 -86.4303 45° Northeast 227 261 3,600 -1,080 Descending Indianapolis Center
01:03PM 39.6456 -86.3744 44° Northeast 202 232 2,400 -1,140 Descending Indianapolis Center
01:03PM 39.6500 -86.3667 53° Northeast 154 177 2,100 -780 Descending Indianapolis TRACON
01:04PM 39.6833 -86.3333 38° Northeast 131 151 1,400 -480 Descending Indianapolis TRACON
01:06PM 39.7264 -86.2708 48° Northeast 143 165 800 -360 Descending Indianapolis Center